Sarfaq Ittuk — OWDD — position and weather

sailwx.info

Track history (hours):
 
Tides and Currents Weather Stations Pressure Air Temp Water Temp Dewpoint Dewpoint Depression Visibility Wind Speed Wind Dir Waves Ship Positions

Sarfaq Ittuk

Last reported at 2019-Oct-15 14:47 UTC. Time now 2019-Oct-17 16:49 UTC.
Position N 63°26' W 051°31'.

Length 73 m; beam 11.1 m; draft 3.7 m.

Type: Passenger vessel. MMSI: 331000499.

Date/timePositionNaut miles runAvg speedWind from/ knotsBaromVisibWave heightAir tempDewpointWater temp
2019-Oct-15 14:47N 63°26' W 051°31'1812.5
2019-Oct-15 13:21N 63°44' W 051°36'512.9
2019-Oct-15 12:59N 63°49' W 051°35'712.7
2019-Oct-15 12:27N 63°55' W 051°34'612.6
2019-Oct-15 12:00N 64°00' W 051°41'612.3
2019-Oct-15 11:30N 64°06' W 051°39'5 9.1
2019-Oct-15 11:00N 64°10' W 051°43'0 0.0
2019-Oct-15 10:30N 64°10' W 051°43'0 0.0
2019-Oct-15 10:00N 64°10' W 051°43'0 0.0
2019-Oct-15 09:30N 64°10' W 051°43'0 0.0
2019-Oct-15 09:00N 64°10' W 051°43'3 6.5
2019-Oct-15 08:31N 64°08' W 051°49'5 9.5
2019-Oct-15 08:00N 64°06' W 051°59'510.4
2019-Oct-15 07:31N 64°03' W 052°09'611.0
2019-Oct-15 07:00N 64°08' W 052°17'510.3
2019-Oct-15 06:30N 64°12' W 052°23'510.9
2019-Oct-15 06:00N 64°17' W 052°26'510.9
2019-Oct-15 05:30N 64°23' W 052°29'511.0
2019-Oct-15 05:01N 64°28' W 052°32'611.4
2019-Oct-15 04:31N 64°34' W 052°35'611.4
2019-Oct-15 04:00N 64°39' W 052°37'611.4
2019-Oct-15 03:30N 64°45' W 052°40'611.6
2019-Oct-15 03:00N 64°51' W 052°42'611.4
2019-Oct-15 02:30N 64°56' W 052°45'611.7
2019-Oct-15 02:00N 65°02' W 052°47'612.1
2019-Oct-15 01:30N 65°08' W 052°50'611.9
2019-Oct-15 01:00N 65°14' W 052°51'20 7.8
2019-Oct-14 22:26N 65°34' W 052°50'15 8.8
2019-Oct-14 20:47N 65°42' W 053°20'411.1
2019-Oct-14 20:26N 65°46' W 053°19'10 6.5
2019-Oct-14 18:51N 65°54' W 053°34'  
2019-Oct-12 05:09N 65°03' W 052°34'311.5
2019-Oct-12 04:54N 65°00' W 052°35'411.3
2019-Oct-12 04:30N 64°56' W 052°33'611.2
2019-Oct-12 04:00N 64°51' W 052°30'510.9
2019-Oct-12 03:30N 64°45' W 052°29'510.8
2019-Oct-12 03:01N 64°40' W 052°30'510.8
2019-Oct-12 02:30N 64°34' W 052°30'510.6
2019-Oct-12 02:00N 64°29' W 052°31'510.7
2019-Oct-12 01:30N 64°24' W 052°30'510.7
2019-Oct-12 01:00N 64°18' W 052°27'510.7
2019-Oct-12 00:30N 64°13' W 052°24'510.1
2019-Oct-12 00:00N 64°09' W 052°19'510.7
2019-Oct-11 23:30N 64°05' W 052°11'4 8.8
2019-Oct-11 23:00N 64°05' W 052°01'611.2
2019-Oct-11 22:30N 64°08' W 051°50'4 7.6
2019-Oct-11 22:00N 64°10' W 051°43'0 0.0
2019-Oct-11 21:30N 64°10' W 051°43'0 0.0
2019-Oct-11 21:00N 64°10' W 051°43'0 0.0
2019-Oct-11 20:30N 64°10' W 051°43'0 0.0
2019-Oct-11 20:00N 64°10' W 051°43'0 0.0
2019-Oct-11 19:30N 64°10' W 051°43'0 0.0
2019-Oct-11 19:00N 64°10' W 051°43'0 0.0
2019-Oct-11 18:30N 64°10' W 051°43'0 0.0
2019-Oct-11 18:00N 64°10' W 051°43'0 0.0
2019-Oct-11 17:31N 64°10' W 051°43'0 0.0
2019-Oct-11 17:00N 64°10' W 051°43'0 0.0
2019-Oct-11 16:31N 64°10' W 051°43'0 0.0
2019-Oct-11 16:00N 64°10' W 051°43'0 0.0
2019-Oct-11 15:31N 64°10' W 051°43'0 0.0
2019-Oct-11 15:00N 64°10' W 051°43'0 0.0
2019-Oct-11 14:30N 64°10' W 051°43'0 0.0
2019-Oct-11 14:00N 64°10' W 051°43'0 0.0
2019-Oct-11 13:30N 64°10' W 051°43'0 0.0
2019-Oct-11 13:00N 64°10' W 051°43'0 0.0
2019-Oct-11 12:30N 64°10' W 051°43'0 0.0
2019-Oct-11 12:00N 64°10' W 051°43'0 0.0
2019-Oct-11 11:30N 64°10' W 051°43'0 0.0
2019-Oct-11 11:00N 64°10' W 051°43'0 0.0
2019-Oct-11 10:30N 64°10' W 051°43'0 0.0
2019-Oct-11 10:00N 64°10' W 051°43'0 0.0
2019-Oct-11 09:30N 64°10' W 051°43'3 6.3
2019-Oct-11 09:00N 64°08' W 051°40'510.3
2019-Oct-11 08:30N 64°02' W 051°39'5 8.9
2019-Oct-11 08:00N 63°58' W 051°38'5 9.4
2019-Oct-11 07:30N 63°54' W 051°34'5 9.7
2019-Oct-11 07:01N 63°49' W 051°35'510.1
2019-Oct-11 06:30N 63°44' W 051°36'  
2019-Oct-08 15:04N 63°26' W 051°31'311.4
2019-Oct-08 14:50N 63°29' W 051°33'411.8
2019-Oct-08 14:30N 63°32' W 051°37'1211.7
2019-Oct-08 13:29N 63°44' W 051°36'612.2
2019-Oct-08 13:00N 63°50' W 051°35'612.0
2019-Oct-08 12:29N 63°56' W 051°35'611.6
2019-Oct-08 12:00N 64°01' W 051°40'611.7
2019-Oct-08 11:30N 64°07' W 051°39'4 7.7
2019-Oct-08 11:01N 64°10' W 051°43'0 0.0
2019-Oct-08 10:30N 64°10' W 051°43'0 0.0
2019-Oct-08 10:00N 64°10' W 051°43'0 0.0
2019-Oct-08 09:30N 64°10' W 051°43'0 0.0
2019-Oct-08 09:01N 64°10' W 051°43'3 5.4
2019-Oct-08 08:30N 64°09' W 051°48'5 9.8
2019-Oct-08 08:00N 64°06' W 051°58'510.2
2019-Oct-08 07:30N 64°04' W 052°08'510.1
2019-Oct-08 07:01N 64°07' W 052°16'510.4
2019-Oct-08 06:30N 64°12' W 052°23'510.6
2019-Oct-08 06:00N 64°17' W 052°26'510.9
2019-Oct-08 05:30N 64°22' W 052°29'611.6
2019-Oct-08 05:00N 64°28' W 052°32'611.7
2019-Oct-08 04:30N 64°33' W 052°34'611.7
2019-Oct-08 04:00N 64°39' W 052°37'611.5
2019-Oct-08 03:30N 64°45' W 052°40'611.6
2019-Oct-08 03:00N 64°50' W 052°42'611.9
2019-Oct-08 02:30N 64°56' W 052°45'611.6
2019-Oct-08 02:00N 65°02' W 052°47'611.8
2019-Oct-08 01:30N 65°08' W 052°50'612.1
2019-Oct-08 01:00N 65°14' W 052°51'32 7.3
2019-Oct-07 20:38N 65°43' W 053°20'411.7
2019-Oct-07 20:16N 65°48' W 053°18'  
Track history (hours):
 
Tides and Currents Weather Stations Pressure Air Temp Water Temp Dewpoint Dewpoint Depression Visibility Wind Speed Wind Dir Waves Ship Positions

Sarfaq Ittuk

Last reported at 2019-Oct-15 14:47 UTC. Time now 2019-Oct-17 16:49 UTC.
Position N 63°26' W 051°31'.

Length 73 m; beam 11.1 m; draft 3.7 m.

Type: Passenger vessel. MMSI: 331000499.

Date/timePositionNaut miles runAvg speedWind from/ knotsBaromVisibWave heightAir tempDewpointWater temp
2019-Oct-15 14:47N 63°26' W 051°31'1812.5
2019-Oct-15 13:21N 63°44' W 051°36'512.9
2019-Oct-15 12:59N 63°49' W 051°35'712.7
2019-Oct-15 12:27N 63°55' W 051°34'612.6
2019-Oct-15 12:00N 64°00' W 051°41'612.3
2019-Oct-15 11:30N 64°06' W 051°39'5 9.1
2019-Oct-15 11:00N 64°10' W 051°43'0 0.0
2019-Oct-15 10:30N 64°10' W 051°43'0 0.0
2019-Oct-15 10:00N 64°10' W 051°43'0 0.0
2019-Oct-15 09:30N 64°10' W 051°43'0 0.0
2019-Oct-15 09:00N 64°10' W 051°43'3 6.5
2019-Oct-15 08:31N 64°08' W 051°49'5 9.5
2019-Oct-15 08:00N 64°06' W 051°59'510.4
2019-Oct-15 07:31N 64°03' W 052°09'611.0
2019-Oct-15 07:00N 64°08' W 052°17'510.3
2019-Oct-15 06:30N 64°12' W 052°23'510.9
2019-Oct-15 06:00N 64°17' W 052°26'510.9
2019-Oct-15 05:30N 64°23' W 052°29'511.0
2019-Oct-15 05:01N 64°28' W 052°32'611.4
2019-Oct-15 04:31N 64°34' W 052°35'611.4
2019-Oct-15 04:00N 64°39' W 052°37'611.4
2019-Oct-15 03:30N 64°45' W 052°40'611.6
2019-Oct-15 03:00N 64°51' W 052°42'611.4
2019-Oct-15 02:30N 64°56' W 052°45'611.7
2019-Oct-15 02:00N 65°02' W 052°47'612.1
2019-Oct-15 01:30N 65°08' W 052°50'611.9
2019-Oct-15 01:00N 65°14' W 052°51'20 7.8
2019-Oct-14 22:26N 65°34' W 052°50'15 8.8
2019-Oct-14 20:47N 65°42' W 053°20'411.1
2019-Oct-14 20:26N 65°46' W 053°19'10 6.5
2019-Oct-14 18:51N 65°54' W 053°34'  
2019-Oct-12 05:09N 65°03' W 052°34'311.5
2019-Oct-12 04:54N 65°00' W 052°35'411.3
2019-Oct-12 04:30N 64°56' W 052°33'611.2
2019-Oct-12 04:00N 64°51' W 052°30'510.9
2019-Oct-12 03:30N 64°45' W 052°29'510.8
2019-Oct-12 03:01N 64°40' W 052°30'510.8
2019-Oct-12 02:30N 64°34' W 052°30'510.6
2019-Oct-12 02:00N 64°29' W 052°31'510.7
2019-Oct-12 01:30N 64°24' W 052°30'510.7
2019-Oct-12 01:00N 64°18' W 052°27'510.7
2019-Oct-12 00:30N 64°13' W 052°24'510.1
2019-Oct-12 00:00N 64°09' W 052°19'510.7
2019-Oct-11 23:30N 64°05' W 052°11'4 8.8
2019-Oct-11 23:00N 64°05' W 052°01'611.2
2019-Oct-11 22:30N 64°08' W 051°50'4 7.6
2019-Oct-11 22:00N 64°10' W 051°43'0 0.0
2019-Oct-11 21:30N 64°10' W 051°43'0 0.0
2019-Oct-11 21:00N 64°10' W 051°43'0 0.0
2019-Oct-11 20:30N 64°10' W 051°43'0 0.0
2019-Oct-11 20:00N 64°10' W 051°43'0 0.0
2019-Oct-11 19:30N 64°10' W 051°43'0 0.0
2019-Oct-11 19:00N 64°10' W 051°43'0 0.0
2019-Oct-11 18:30N 64°10' W 051°43'0 0.0
2019-Oct-11 18:00N 64°10' W 051°43'0 0.0
2019-Oct-11 17:31N 64°10' W 051°43'0 0.0
2019-Oct-11 17:00N 64°10' W 051°43'0 0.0
2019-Oct-11 16:31N 64°10' W 051°43'0 0.0
2019-Oct-11 16:00N 64°10' W 051°43'0 0.0
2019-Oct-11 15:31N 64°10' W 051°43'0 0.0
2019-Oct-11 15:00N 64°10' W 051°43'0 0.0
2019-Oct-11 14:30N 64°10' W 051°43'0 0.0
2019-Oct-11 14:00N 64°10' W 051°43'0 0.0
2019-Oct-11 13:30N 64°10' W 051°43'0 0.0
2019-Oct-11 13:00N 64°10' W 051°43'0 0.0
2019-Oct-11 12:30N 64°10' W 051°43'0 0.0
2019-Oct-11 12:00N 64°10' W 051°43'0 0.0
2019-Oct-11 11:30N 64°10' W 051°43'0 0.0
2019-Oct-11 11:00N 64°10' W 051°43'0 0.0
2019-Oct-11 10:30N 64°10' W 051°43'0 0.0
2019-Oct-11 10:00N 64°10' W 051°43'0 0.0
2019-Oct-11 09:30N 64°10' W 051°43'3 6.3
2019-Oct-11 09:00N 64°08' W 051°40'510.3
2019-Oct-11 08:30N 64°02' W 051°39'5 8.9
2019-Oct-11 08:00N 63°58' W 051°38'5 9.4
2019-Oct-11 07:30N 63°54' W 051°34'5 9.7
2019-Oct-11 07:01N 63°49' W 051°35'510.1
2019-Oct-11 06:30N 63°44' W 051°36'  
2019-Oct-08 15:04N 63°26' W 051°31'311.4
2019-Oct-08 14:50N 63°29' W 051°33'411.8
2019-Oct-08 14:30N 63°32' W 051°37'1211.7
2019-Oct-08 13:29N 63°44' W 051°36'612.2
2019-Oct-08 13:00N 63°50' W 051°35'612.0
2019-Oct-08 12:29N 63°56' W 051°35'611.6
2019-Oct-08 12:00N 64°01' W 051°40'611.7
2019-Oct-08 11:30N 64°07' W 051°39'4 7.7
2019-Oct-08 11:01N 64°10' W 051°43'0 0.0
2019-Oct-08 10:30N 64°10' W 051°43'0 0.0
2019-Oct-08 10:00N 64°10' W 051°43'0 0.0
2019-Oct-08 09:30N 64°10' W 051°43'0 0.0
2019-Oct-08 09:01N 64°10' W 051°43'3 5.4
2019-Oct-08 08:30N 64°09' W 051°48'5 9.8
2019-Oct-08 08:00N 64°06' W 051°58'510.2
2019-Oct-08 07:30N 64°04' W 052°08'510.1
2019-Oct-08 07:01N 64°07' W 052°16'510.4
2019-Oct-08 06:30N 64°12' W 052°23'510.6
2019-Oct-08 06:00N 64°17' W 052°26'510.9
2019-Oct-08 05:30N 64°22' W 052°29'611.6
2019-Oct-08 05:00N 64°28' W 052°32'611.7
2019-Oct-08 04:30N 64°33' W 052°34'611.7
2019-Oct-08 04:00N 64°39' W 052°37'611.5
2019-Oct-08 03:30N 64°45' W 052°40'611.6
2019-Oct-08 03:00N 64°50' W 052°42'611.9
2019-Oct-08 02:30N 64°56' W 052°45'611.6
2019-Oct-08 02:00N 65°02' W 052°47'611.8
2019-Oct-08 01:30N 65°08' W 052°50'612.1
2019-Oct-08 01:00N 65°14' W 052°51'32 7.3
2019-Oct-07 20:38N 65°43' W 053°20'411.7
2019-Oct-07 20:16N 65°48' W 053°18'  

Dump ship's entire track history